Tuesday, July 17, 2018, 1:33 AM EDT
Back to Local

KEKN, Jennings Randolph Field

Location: Elkins, WV, United States Lat: 38.883
Local Time: 1:33 AM EDT ( 5:33 GMT) Lon: -79.85
Time Zone: US/Eastern Elev: 1988 ft

Show me the last for .
Show Decoded

2018-07-17 00:51 METAR KEKN 170451Z AUTO 00000KT 10SM SCT036 19/18 A3002 RMK AO2 SLP152 T01940178
                 403000161 TSNO =
2018-07-16 23:51 METAR KEKN 170351Z AUTO 00000KT 10SM CLR 20/18 A3003 RMK AO2 SLP155 T02000178
                 TSNO =
2018-07-16 22:51 METAR KEKN 170251Z AUTO 00000KT 8SM CLR 20/18 A3003 RMK AO2 SLP156 T02000183
                 53004 TSNO =
2018-07-16 21:51 METAR KEKN 170151Z AUTO 15003KT 10SM CLR 21/19 A3002 RMK AO2 SLP157 T02060194
                 TSNO =
2018-07-16 20:51 METAR KEKN 170051Z AUTO 00000KT 10SM CLR 22/20 A3002 RMK AO2 SLP156 T02170200
                 TSNO =
2018-07-16 19:51 METAR KEKN 162351Z AUTO 00000KT 10SM CLR 24/21 A3001 RMK AO2 SLP155 60001
                 T02390206 10300 20222 55007 TSNO =
2018-07-16 18:51 METAR KEKN 162251Z AUTO 00000KT 10SM CLR 25/20 A3001 RMK AO2 SLP155 T02500200
                 TSNO =
2018-07-16 17:51 METAR KEKN 162151Z AUTO 00000KT 10SM CLR 26/19 A3001 RMK AO2 SLP153 T02610189
                 TSNO =
2018-07-16 15:51 METAR KEKN 161951Z AUTO 18003KT 6SM -RA FEW070 FEW085 OVC110 23/18 A3005 RMK AO2
                 RAB28 SLP169 P0001 T02280178 TSNO =
2018-07-16 14:51 METAR KEKN 161851Z AUTO 20006KT 10SM FEW060 FEW075 29/20 A3004 RMK AO2 SLP159
                 T02940200 TSNO =
2018-07-16 13:51 METAR KEKN 161751Z AUTO 16004KT 10SM FEW036 28/19 A3006 RMK AO2 SLP166 T02780189
                 10294 20172 58015 TSNO =
2018-07-16 12:51 METAR KEKN 161651Z AUTO VRB05KT 10SM CLR 28/20 A3008 RMK AO2 SLP175 T02830200
                 TSNO =
2018-07-16 11:51 METAR KEKN 161551Z AUTO VRB03KT 10SM CLR 27/20 A3010 RMK AO2 SLP180 T02720200
                 TSNO =
2018-07-16 10:51 METAR KEKN 161451Z AUTO 00000KT 10SM CLR 26/19 A3010 RMK AO2 SLP183 T02560194
                 58003 TSNO =
2018-07-16 09:51 METAR KEKN 161351Z AUTO 00000KT 10SM CLR 22/18 A3011 RMK AO2 SLP189 T02170178
                 TSNO =
2018-07-16 09:14 METAR KEKN 161314Z AUTO 00000KT 10SM FEW004 SCT037 20/18 A3012 RMK AO2 T02000178
                 TSNO =
2018-07-16 08:51 METAR KEKN 161251Z AUTO 00000KT 10SM BKN004 19/17 A3012 RMK AO2 SLP192 T01890167
                 TSNO =
2018-07-16 07:51 METAR KEKN 161151Z AUTO 00000KT 3SM BR OVC003 17/17 A3011 RMK AO2 SLP190 70019
                 T01720167 10178 20161 50002 TSNO =
2018-07-16 06:51 METAR KEKN 161051Z AUTO 00000KT 8SM OVC003 16/16 A3012 RMK AO2 SLP192 T01610156
                 TSNO =
2018-07-16 06:34 METAR KEKN 161034Z AUTO 00000KT 5SM BR OVC003 17/16 A3012 RMK AO2 T01670156 TSNO
                 =
2018-07-16 06:27 METAR KEKN 161027Z AUTO 00000KT 2SM BR OVC003 17/16 A3012 =
2018-07-16 06:14 METAR KEKN 161014Z AUTO 00000KT 1/2SM FG OVC002 17/16 A3012 RMK AO2 T01670156
                 TSNO =
2018-07-16 06:03 METAR KEKN 161003Z AUTO 00000KT 1 3/4SM BR OVC002 17/16 A3011 =
2018-07-16 05:54 METAR KEKN 160954Z AUTO 00000KT 3SM BR OVC002 17/16 A3011 RMK AO2 T01670156 TSNO
                 =
2018-07-16 05:51 METAR KEKN 160951Z AUTO 00000KT 1 3/4SM BR OVC002 17/16 A3011 RMK AO2 SLP189
                 T01670156 TSNO =
2018-07-16 05:40 METAR KEKN 160940Z AUTO 00000KT 1 3/4SM BR BKN002 OVC006 17/16 A3011 RMK AO2
                 T01670156 TSNO =
2018-07-16 05:14 METAR KEKN 160914Z AUTO 00000KT 3SM BR BKN002 16/16 A3011 RMK AO2 T01610156 TSNO
                 =
2018-07-16 05:07 METAR KEKN 160907Z AUTO 00000KT 1SM BR VV002 17/16 A3011 =
2018-07-16 04:51 METAR KEKN 160851Z AUTO 00000KT 1/4SM FG VV002 17/16 A3010 RMK AO2 SLP183
                 T01670161 58005 TSNO =
2018-07-16 04:38 METAR KEKN 160838Z AUTO 00000KT 1/4SM FG VV002 17/16 A3010 =
2018-07-16 04:29 METAR KEKN 160829Z AUTO 00000KT 1 3/4SM BR OVC002 17/16 A3011 RMK AO2 T01670161
                 TSNO =
2018-07-16 04:09 METAR KEKN 160809Z AUTO 00000KT 4SM BR BKN002 17/16 A3011 =
2018-07-16 03:59 METAR KEKN 160759Z AUTO 00000KT 5SM BR SCT002 17/16 A3011 =
2018-07-16 03:51 METAR KEKN 160751Z AUTO 00000KT 5SM BR BKN003 17/16 A3011 RMK AO2 SLP183
                 T01670161 TSNO =
2018-07-16 03:01 METAR KEKN 160701Z AUTO 00000KT 6SM BR OVC004 17/16 A3012 =
2018-07-16 02:51 METAR KEKN 160651Z AUTO 00000KT 7SM BKN005 17/16 A3012 RMK AO2 SLP187 T01720161
                 TSNO =
2018-07-16 02:29 METAR KEKN 160629Z AUTO 00000KT 4SM BR SCT003 17/16 A3012 RMK AO2 T01670161 TSNO
                 =
2018-07-16 02:05 METAR KEKN 160605Z AUTO 00000KT 3SM BR OVC003 17/17 A3012 RMK AO2 T01720167 TSNO
                 =
2018-07-16 01:51 METAR KEKN 160551Z AUTO 00000KT 1SM BR OVC002 17/17 A3012 RMK AO2 SLP188
                 T01720167 10211 20172 55001 TSNO =

Support USWX by starting your Amazon purchase here.